createdAt,value
2023-04-11T00:02:30.125Z,62.99
2023-04-11T00:05:15.677Z,62.00
2023-04-11T00:08:00.981Z,62.38
2023-04-11T00:10:46.120Z,62.80
2023-04-11T00:13:31.154Z,62.70
2023-04-11T00:16:16.598Z,62.89
2023-04-11T00:19:02.108Z,63.27
2023-04-11T00:21:47.448Z,61.87
2023-04-11T00:24:32.698Z,62.68
2023-04-11T00:27:19.449Z,63.95
2023-04-11T00:30:07.182Z,64.28
2023-04-11T00:32:52.858Z,64.23
2023-04-11T00:35:38.027Z,64.92
2023-04-11T00:38:23.307Z,66.06
2023-04-11T00:41:08.764Z,66.18
2023-04-11T00:43:54.265Z,66.84
2023-04-11T00:46:41.612Z,66.09
2023-04-11T00:49:27.136Z,66.22
2023-04-11T00:52:12.362Z,68.18
2023-04-11T00:54:58.296Z,69.18
2023-04-11T00:57:43.896Z,69.28
2023-04-11T01:00:32.355Z,69.26
2023-04-11T01:03:18.594Z,69.26
2023-04-11T01:06:05.974Z,70.57
2023-04-11T01:08:52.048Z,69.74
2023-04-11T01:11:37.560Z,70.20
2023-04-11T01:14:25.449Z,71.66
2023-04-11T01:17:10.807Z,71.45
2023-04-11T01:19:57.358Z,72.25
2023-04-11T01:22:43.087Z,73.85
2023-04-11T01:25:28.402Z,76.24
2023-04-11T01:28:13.600Z,77.51
2023-04-11T01:30:58.685Z,78.56
2023-04-11T01:33:46.676Z,79.13
2023-04-11T01:36:32.064Z,80.03
2023-04-11T01:39:17.466Z,80.35
2023-04-11T01:42:04.277Z,79.74
2023-04-11T01:44:51.593Z,78.45
2023-04-11T01:47:37.190Z,79.96
2023-04-11T01:50:23.491Z,80.71
2023-04-11T01:53:09.103Z,80.39
2023-04-11T01:55:54.919Z,79.68
2023-04-11T01:58:40.448Z,78.36
2023-04-11T02:01:25.700Z,77.84
2023-04-11T02:04:11.080Z,77.41
2023-04-11T02:06:59.554Z,76.72
2023-04-11T02:09:45.131Z,76.98
2023-04-11T02:12:30.727Z,76.50
2023-04-11T02:15:16.313Z,77.31
2023-04-11T02:18:01.709Z,77.95
2023-04-11T02:20:46.771Z,77.75
2023-04-11T02:23:32.130Z,78.10
2023-04-11T02:26:17.481Z,78.33
2023-04-11T02:29:02.674Z,79.01
2023-04-11T02:31:48.745Z,79.25
2023-04-11T02:34:35.818Z,78.96
2023-04-11T02:37:21.258Z,78.85
2023-04-11T02:40:07.424Z,79.37
2023-04-11T02:42:55.298Z,78.33
2023-04-11T02:45:41.298Z,78.48
2023-04-11T02:48:26.832Z,77.98
2023-04-11T02:51:12.373Z,77.77
2023-04-11T02:53:57.575Z,78.18
2023-04-11T02:56:42.873Z,78.40
2023-04-11T02:59:28.507Z,77.36
2023-04-11T03:02:14.046Z,77.77
2023-04-11T03:04:59.347Z,77.62
2023-04-11T03:07:44.629Z,77.59
2023-04-11T03:10:29.954Z,77.47
2023-04-11T03:13:16.976Z,78.53
2023-04-11T03:16:02.219Z,79.58
2023-04-11T03:18:50.214Z,79.66
2023-04-11T03:21:35.417Z,80.35
2023-04-11T03:24:21.469Z,80.12
2023-04-11T03:27:07.569Z,78.96
2023-04-11T03:29:53.194Z,78.58
2023-04-11T03:32:53.483Z,77.15
2023-04-11T03:35:39.199Z,77.70
2023-04-11T03:38:25.369Z,77.48
2023-04-11T03:41:10.663Z,77.16
2023-04-11T03:43:55.849Z,76.47
2023-04-11T03:46:41.304Z,76.18
2023-04-11T03:49:26.942Z,75.13
2023-04-11T03:52:14.846Z,74.27
2023-04-11T03:55:00.204Z,75.01
2023-04-11T03:57:46.716Z,75.49
2023-04-11T04:00:32.438Z,75.52
2023-04-11T04:03:23.889Z,75.66
2023-04-11T04:06:09.815Z,75.46
2023-04-11T04:08:56.049Z,76.35
2023-04-11T04:11:41.742Z,77.20
2023-04-11T04:14:27.390Z,76.49
2023-04-11T04:17:14.819Z,76.34
2023-04-11T04:20:00.409Z,76.00
2023-04-11T04:22:45.902Z,75.21
2023-04-11T04:25:32.119Z,75.70
2023-04-11T04:28:18.637Z,75.68
2023-04-11T04:31:03.947Z,74.82
2023-04-11T04:33:56.277Z,73.73
2023-04-11T04:36:43.731Z,74.23
2023-04-11T04:39:29.419Z,75.21
2023-04-11T04:42:15.403Z,75.57
2023-04-11T04:45:00.692Z,75.10
2023-04-11T04:47:47.401Z,75.74
2023-04-11T04:50:32.561Z,75.38
2023-04-11T04:53:17.810Z,75.54
2023-04-11T04:56:08.207Z,75.93
2023-04-11T04:59:03.526Z,75.00
2023-04-11T05:01:49.964Z,75.23
2023-04-11T05:04:36.362Z,75.09
2023-04-11T05:07:21.922Z,74.72
2023-04-11T05:10:10.407Z,74.88
2023-04-11T05:12:57.693Z,74.61
2023-04-11T05:15:48.029Z,74.16
2023-04-11T05:18:33.093Z,73.38
2023-04-11T05:21:18.811Z,74.83
2023-04-11T05:24:08.093Z,73.79
2023-04-11T05:26:55.486Z,74.46
2023-04-11T05:29:41.046Z,75.30
2023-04-11T05:32:26.744Z,74.80
2023-04-11T05:35:12.233Z,75.79
2023-04-11T05:38:04.714Z,75.68
2023-04-11T05:40:50.490Z,75.62
2023-04-11T05:43:35.740Z,76.15
2023-04-11T05:46:21.426Z,75.66
2023-04-11T05:49:06.894Z,75.68
2023-04-11T05:51:52.418Z,75.17
2023-04-11T05:54:37.600Z,75.71
2023-04-11T05:57:23.234Z,77.09
2023-04-11T06:00:09.115Z,77.28
2023-04-11T06:02:58.325Z,76.37
2023-04-11T06:05:43.901Z,75.40
2023-04-11T06:08:29.138Z,75.29
2023-04-11T06:11:14.344Z,76.59
2023-04-11T06:13:59.728Z,75.91
2023-04-11T06:16:44.959Z,75.29
2023-04-11T06:19:30.433Z,74.81
2023-04-11T06:22:16.013Z,75.00
2023-04-11T06:25:01.605Z,73.09
2023-04-11T06:27:48.131Z,71.85
2023-04-11T06:30:33.142Z,69.75
2023-04-11T06:33:18.522Z,68.79
2023-04-11T06:36:06.071Z,67.80
2023-04-11T06:38:51.465Z,71.32
2023-04-11T06:41:36.974Z,71.98
2023-04-11T06:44:22.293Z,70.02
2023-04-11T06:47:07.745Z,69.89
2023-04-11T06:49:53.965Z,70.13
2023-04-11T06:52:39.129Z,69.28
2023-04-11T06:55:24.294Z,68.83
2023-04-11T06:58:09.631Z,69.74
2023-04-11T07:00:55.734Z,68.24
2023-04-11T07:03:41.043Z,67.41
2023-04-11T07:06:26.531Z,66.00
2023-04-11T07:09:11.986Z,64.94
2023-04-11T07:11:57.077Z,65.74
2023-04-11T07:14:42.186Z,67.00
2023-04-11T07:17:27.499Z,67.31
2023-04-11T07:20:12.851Z,67.12
2023-04-11T07:22:58.216Z,65.11
2023-04-11T07:25:43.383Z,64.42
2023-04-11T07:28:28.918Z,63.49
2023-04-11T07:31:14.525Z,64.15
2023-04-11T07:34:00.112Z,63.49
2023-04-11T07:36:45.788Z,62.53
2023-04-11T07:39:30.969Z,61.39
2023-04-11T07:42:16.402Z,61.89
2023-04-11T07:45:01.940Z,61.62
2023-04-11T07:47:48.127Z,62.19
2023-04-11T07:50:33.480Z,59.97
2023-04-11T07:53:19.130Z,59.78
2023-04-11T07:56:04.782Z,60.85
2023-04-11T07:58:50.218Z,58.35
2023-04-11T08:01:35.329Z,59.23
2023-04-11T08:04:20.958Z,59.08
2023-04-11T08:07:06.607Z,59.40
2023-04-11T08:09:52.148Z,57.34
2023-04-11T08:12:37.454Z,56.85
2023-04-11T08:15:22.995Z,56.76
2023-04-11T08:18:08.346Z,56.75
2023-04-11T08:20:53.741Z,57.51
2023-04-11T08:23:39.734Z,58.28
2023-04-11T08:26:25.233Z,57.29
2023-04-11T08:29:10.669Z,56.97
2023-04-11T08:31:56.192Z,56.17
2023-04-11T08:34:41.822Z,60.52
2023-04-11T08:37:30.773Z,66.58
2023-04-11T08:40:16.208Z,69.04
2023-04-11T08:43:01.761Z,72.57
2023-04-11T08:45:47.578Z,72.59
2023-04-11T08:48:32.688Z,74.00
2023-04-11T08:51:24.829Z,75.38
2023-04-11T08:54:10.536Z,78.92
2023-04-11T08:56:55.730Z,77.14
2023-04-11T08:59:50.195Z,73.66
2023-04-11T09:02:36.046Z,77.14
2023-04-11T09:05:29.278Z,80.12
2023-04-11T09:08:16.378Z,80.28
2023-04-11T09:11:01.575Z,75.84
2023-04-11T09:13:46.779Z,75.44
2023-04-11T09:16:34.086Z,73.09
2023-04-11T09:19:27.330Z,74.90
2023-04-11T09:22:14.259Z,72.10
2023-04-11T09:25:03.039Z,66.42
2023-04-11T09:27:49.364Z,67.26
2023-04-11T09:30:34.990Z,66.90
2023-04-11T09:33:25.531Z,66.08
2023-04-11T09:36:22.959Z,65.37
2023-04-11T09:39:18.052Z,67.06
2023-04-11T09:42:23.168Z,65.35
2023-04-11T09:45:23.525Z,66.02
2023-04-11T09:48:09.156Z,62.96
2023-04-11T09:50:54.860Z,61.00
2023-04-11T09:53:41.465Z,62.43
2023-04-11T09:56:26.945Z,62.67
2023-04-11T09:59:15.037Z,57.90
2023-04-11T10:02:00.689Z,58.99
2023-04-11T10:04:46.410Z,60.20
2023-04-11T10:07:34.029Z,58.15
2023-04-11T10:10:21.240Z,57.61
2023-04-11T10:13:39.027Z,56.42
2023-04-11T10:16:24.515Z,55.46
2023-04-11T10:19:19.113Z,55.27
2023-04-11T10:22:04.831Z,53.97
2023-04-11T10:25:18.826Z,56.02
2023-04-11T10:28:04.187Z,55.95
2023-04-11T10:30:49.612Z,55.60
2023-04-11T10:33:36.042Z,55.03
2023-04-11T10:36:22.761Z,52.88
2023-04-11T10:39:08.354Z,55.47
2023-04-11T10:41:53.399Z,51.01
2023-04-11T10:44:40.071Z,52.83
2023-04-11T10:47:25.687Z,51.32
2023-04-11T10:50:26.285Z,51.38
2023-04-11T10:53:34.321Z,49.98
2023-04-11T10:56:44.412Z,52.91
2023-04-11T10:59:32.503Z,52.39
2023-04-11T11:02:18.392Z,52.99
2023-04-11T11:05:14.956Z,52.31
2023-04-11T11:08:01.427Z,50.08
2023-04-11T11:10:46.828Z,48.13
2023-04-11T11:13:38.886Z,48.22
2023-04-11T11:16:25.938Z,47.95
2023-04-11T11:19:13.993Z,48.41
2023-04-11T11:21:59.411Z,47.26
2023-04-11T11:24:45.108Z,47.76
2023-04-11T11:27:30.254Z,44.67
2023-04-11T11:30:16.401Z,46.31
2023-04-11T11:33:19.726Z,46.95
2023-04-11T11:36:05.601Z,45.74
2023-04-11T11:38:51.044Z,45.18
2023-04-11T11:41:38.392Z,44.62
2023-04-11T11:44:28.748Z,45.77
2023-04-11T11:47:14.412Z,46.22
2023-04-11T11:50:00.471Z,46.79
2023-04-11T11:52:45.810Z,44.84
2023-04-11T11:55:32.294Z,43.81
2023-04-11T11:58:17.442Z,41.97
2023-04-11T12:01:02.829Z,43.92
2023-04-11T12:03:48.538Z,46.66
2023-04-11T12:06:34.063Z,44.80
2023-04-11T12:09:19.819Z,43.80
2023-04-11T12:12:09.050Z,46.58
2023-04-11T12:14:54.887Z,45.25
2023-04-11T12:17:40.671Z,46.99
2023-04-11T12:20:27.271Z,45.58
2023-04-11T12:23:12.670Z,45.57
2023-04-11T12:25:58.132Z,43.43
2023-04-11T12:28:43.745Z,44.18
2023-04-11T12:31:29.087Z,44.35
2023-04-11T12:34:14.786Z,44.47
2023-04-11T12:37:00.022Z,44.25
2023-04-11T12:39:46.187Z,44.90
2023-04-11T12:42:33.274Z,44.72
2023-04-11T12:45:18.298Z,42.83
2023-04-11T12:48:03.679Z,42.97
2023-04-11T12:50:49.288Z,43.05
2023-04-11T12:53:34.711Z,40.72
2023-04-11T12:56:19.972Z,41.50
2023-04-11T12:59:05.135Z,39.58
2023-04-11T13:01:50.204Z,40.44
2023-04-11T13:04:36.124Z,38.66
2023-04-11T13:07:21.820Z,39.37
2023-04-11T13:10:08.373Z,41.59
2023-04-11T13:12:53.388Z,38.43
2023-04-11T13:15:38.653Z,40.43
2023-04-11T13:18:24.288Z,40.91
2023-04-11T13:21:09.828Z,40.38
2023-04-11T13:23:55.295Z,41.89
2023-04-11T13:26:40.476Z,41.22
2023-04-11T13:29:26.125Z,41.95
2023-04-11T13:32:11.693Z,39.49
2023-04-11T13:34:56.853Z,39.96
2023-04-11T13:37:42.186Z,40.48
2023-04-11T13:40:27.251Z,40.65
2023-04-11T13:43:12.755Z,41.98
2023-04-11T13:45:58.214Z,41.64
2023-04-11T13:48:46.527Z,41.79
2023-04-11T13:51:32.614Z,41.06
2023-04-11T13:54:18.096Z,41.52
2023-04-11T13:57:03.759Z,41.54
2023-04-11T13:59:49.168Z,40.03
2023-04-11T14:02:34.524Z,40.73
2023-04-11T14:05:20.053Z,40.73
2023-04-11T14:08:05.842Z,40.81
2023-04-11T14:10:51.847Z,42.02
2023-04-11T14:13:36.986Z,43.43
2023-04-11T14:16:22.439Z,45.81
2023-04-11T14:19:08.038Z,45.27
2023-04-11T14:21:53.420Z,46.18
2023-04-11T14:24:39.400Z,48.46
2023-04-11T14:27:24.768Z,49.94
2023-04-11T14:30:11.886Z,48.33
2023-04-11T14:32:57.506Z,49.06
2023-04-11T14:35:42.567Z,51.99
2023-04-11T14:38:27.655Z,51.89
2023-04-11T14:41:13.380Z,52.66
2023-04-11T14:43:58.817Z,52.33
2023-04-11T14:46:44.423Z,55.61
2023-04-11T14:49:29.795Z,54.89
2023-04-11T14:52:15.003Z,54.66
2023-04-11T14:55:00.193Z,55.84
2023-04-11T14:57:45.505Z,56.50
2023-04-11T15:00:30.831Z,55.23
2023-04-11T15:03:16.404Z,56.63
2023-04-11T15:06:02.776Z,55.64
2023-04-11T15:08:47.978Z,54.88
2023-04-11T15:11:33.842Z,55.15
2023-04-11T15:14:19.517Z,57.17
2023-04-11T15:17:04.662Z,55.60
2023-04-11T15:19:49.829Z,55.99
2023-04-11T15:22:38.090Z,57.95
2023-04-11T15:25:24.450Z,56.75
2023-04-11T15:28:09.777Z,60.81
2023-04-11T15:30:55.071Z,60.44
2023-04-11T15:33:40.533Z,58.95
2023-04-11T15:36:25.842Z,54.62
2023-04-11T15:39:11.571Z,54.67
2023-04-11T15:41:58.017Z,51.57
2023-04-11T15:44:46.051Z,55.00
2023-04-11T15:47:31.291Z,53.85
2023-04-11T15:50:17.246Z,52.77
2023-04-11T15:53:02.761Z,50.11
2023-04-11T15:55:48.161Z,52.42
2023-04-11T15:58:33.911Z,54.76
2023-04-11T16:01:21.027Z,57.04
2023-04-11T16:04:06.484Z,57.25
2023-04-11T16:06:52.529Z,58.61
2023-04-11T16:09:37.952Z,60.07
2023-04-11T16:12:23.850Z,58.60
2023-04-11T16:15:09.076Z,58.72
2023-04-11T16:17:55.478Z,57.60
2023-04-11T16:20:40.530Z,55.34
2023-04-11T16:23:26.133Z,51.28
2023-04-11T16:26:11.585Z,50.45
2023-04-11T16:28:56.913Z,53.09
2023-04-11T16:31:42.179Z,51.05
2023-04-11T16:34:27.734Z,52.55
2023-04-11T16:37:13.245Z,52.77
2023-04-11T16:39:58.560Z,53.14
2023-04-11T16:42:43.712Z,52.88
2023-04-11T16:45:29.184Z,53.07
2023-04-11T16:48:14.303Z,49.90
2023-04-11T16:51:00.939Z,48.60
2023-04-11T16:53:45.943Z,47.87
2023-04-11T16:56:31.581Z,49.51
2023-04-11T16:59:18.106Z,48.34
2023-04-11T17:02:03.458Z,48.03
2023-04-11T17:04:49.070Z,48.36
2023-04-11T17:07:34.277Z,49.81
2023-04-11T17:10:20.947Z,49.24
2023-04-11T17:13:06.528Z,49.35
2023-04-11T17:15:52.054Z,49.09
2023-04-11T17:18:38.202Z,49.19
2023-04-11T17:21:23.374Z,49.69
2023-04-11T17:24:08.592Z,49.56
2023-04-11T17:26:53.945Z,49.13
2023-04-11T17:29:39.231Z,49.43
2023-04-11T17:32:24.691Z,48.62
2023-04-11T17:35:11.026Z,48.48
2023-04-11T17:37:56.317Z,49.57
2023-04-11T17:40:41.824Z,49.18
2023-04-11T17:43:27.125Z,50.00
2023-04-11T17:46:12.702Z,49.90
2023-04-11T17:49:00.091Z,49.24
2023-04-11T17:51:56.271Z,49.76
2023-04-11T17:54:44.378Z,49.77
2023-04-11T17:57:30.816Z,50.51
2023-04-11T18:03:01.807Z,50.40
2023-04-11T18:05:48.164Z,49.54
2023-04-11T18:08:48.860Z,51.48
2023-04-11T18:11:35.240Z,53.72
2023-04-11T18:14:21.915Z,54.15
2023-04-11T18:17:08.885Z,54.54
2023-04-11T18:19:54.054Z,55.14
2023-04-11T18:22:43.261Z,55.70
2023-04-11T18:25:28.560Z,56.51
2023-04-11T18:28:13.699Z,56.39
2023-04-11T18:30:59.121Z,55.81
2023-04-11T18:33:46.766Z,56.10
2023-04-11T18:36:44.783Z,56.35
2023-04-11T18:39:30.472Z,56.05
2023-04-11T18:42:15.933Z,57.01
2023-04-11T18:45:01.646Z,58.54
2023-04-11T18:47:47.566Z,57.73
2023-04-11T18:50:33.179Z,57.60
2023-04-11T18:53:18.919Z,57.07
2023-04-11T18:56:04.070Z,57.88
2023-04-11T18:58:53.538Z,58.51
2023-04-11T19:01:41.269Z,58.88
2023-04-11T19:04:27.382Z,59.25
2023-04-11T19:07:16.906Z,58.88
2023-04-11T19:10:02.355Z,59.28
2023-04-11T19:12:47.901Z,59.12
2023-04-11T19:15:33.792Z,60.08
2023-04-11T19:18:19.633Z,60.62
2023-04-11T19:21:05.446Z,60.72
2023-04-11T19:23:50.953Z,60.20
2023-04-11T19:26:36.797Z,61.11
2023-04-11T19:29:22.171Z,61.74
2023-04-11T19:32:10.734Z,61.63
2023-04-11T19:34:56.347Z,61.55
2023-04-11T19:37:41.573Z,61.25
2023-04-11T19:40:27.487Z,61.52
2023-04-11T19:43:13.413Z,61.66
2023-04-11T19:45:58.962Z,61.13
2023-04-11T19:48:45.200Z,61.22
2023-04-11T19:51:30.955Z,60.81
2023-04-11T19:54:20.729Z,60.32
2023-04-11T19:57:05.904Z,60.25
2023-04-11T19:59:51.590Z,61.47
2023-04-11T20:02:38.117Z,62.52
2023-04-11T20:05:23.462Z,62.47
2023-04-11T20:08:09.275Z,63.24
2023-04-11T20:10:54.738Z,63.31
2023-04-11T20:13:40.363Z,62.90
2023-04-11T20:16:25.762Z,62.71
2023-04-11T20:19:11.109Z,62.79
2023-04-11T20:21:56.617Z,62.84
2023-04-11T20:25:07.567Z,64.94
2023-04-11T20:27:53.353Z,65.63
2023-04-11T20:30:39.034Z,65.03
2023-04-11T20:33:25.556Z,64.98
2023-04-11T20:36:12.803Z,65.19
2023-04-11T20:39:00.782Z,65.53
2023-04-11T20:41:46.104Z,65.14
2023-04-11T20:44:31.834Z,64.50
2023-04-11T20:47:17.050Z,64.14
2023-04-11T20:50:07.814Z,64.42
2023-04-11T20:52:53.070Z,64.30
2023-04-11T20:55:38.877Z,64.84
2023-04-11T20:58:24.058Z,65.29
2023-04-11T21:01:09.602Z,65.91
2023-04-11T21:03:55.197Z,65.25
2023-04-11T21:06:40.857Z,64.68
2023-04-11T21:09:26.367Z,65.06
2023-04-11T21:12:12.102Z,64.60
2023-04-11T21:14:58.262Z,64.50
2023-04-11T21:17:43.826Z,63.55
2023-04-11T21:20:29.361Z,64.43
2023-04-11T21:23:14.541Z,62.96
2023-04-11T21:25:59.926Z,63.52
2023-04-11T21:28:45.371Z,64.29
2023-04-11T21:31:31.602Z,64.17
2023-04-11T21:34:17.095Z,63.98
2023-04-11T21:37:02.587Z,65.03
2023-04-11T21:39:48.041Z,64.90
2023-04-11T21:42:33.361Z,64.36
2023-04-11T21:45:18.740Z,64.32
2023-04-11T21:48:04.017Z,64.62
2023-04-11T21:50:49.433Z,64.34
2023-04-11T21:53:34.736Z,65.00
2023-04-11T21:56:20.317Z,64.89
2023-04-11T21:59:05.648Z,64.95
2023-04-11T22:01:52.580Z,64.99
2023-04-11T22:04:51.324Z,64.68
2023-04-11T22:07:43.636Z,65.54
2023-04-11T22:10:37.816Z,65.93
2023-04-11T22:13:30.364Z,66.60
2023-04-11T22:16:15.732Z,66.42
2023-04-11T22:19:01.740Z,66.09
2023-04-11T22:21:47.067Z,66.09
2023-04-11T22:24:32.418Z,65.88
2023-04-11T22:27:17.538Z,65.96
2023-04-11T22:30:02.821Z,65.30
2023-04-11T22:32:48.187Z,65.65
2023-04-11T22:35:33.358Z,65.32
2023-04-11T22:38:19.076Z,65.35
2023-04-11T22:41:04.908Z,66.13
2023-04-11T22:43:50.210Z,66.01
2023-04-11T22:46:36.532Z,66.19
2023-04-11T22:49:22.065Z,66.12
2023-04-11T22:52:10.966Z,65.63
2023-04-11T22:54:56.010Z,65.14
2023-04-11T22:57:42.687Z,65.38
2023-04-11T23:00:28.688Z,65.22
2023-04-11T23:03:14.309Z,65.17
2023-04-11T23:06:00.118Z,64.90
2023-04-11T23:08:45.575Z,65.13
2023-04-11T23:11:30.769Z,65.25
2023-04-11T23:14:16.389Z,65.40
2023-04-11T23:17:02.894Z,66.76
2023-04-11T23:19:48.582Z,67.41
2023-04-11T23:22:33.902Z,67.94
2023-04-11T23:25:19.739Z,67.66
2023-04-11T23:28:05.329Z,68.32
2023-04-11T23:30:50.499Z,68.46
2023-04-11T23:33:35.800Z,69.11
2023-04-11T23:36:21.246Z,69.71
2023-04-11T23:39:06.671Z,69.20
2023-04-11T23:41:52.402Z,68.60
2023-04-11T23:44:37.412Z,67.89
2023-04-11T23:47:23.071Z,67.22
2023-04-11T23:50:09.125Z,67.03
2023-04-11T23:52:54.493Z,67.00
2023-04-11T23:55:39.639Z,65.98
2023-04-11T23:58:25.419Z,67.42
